• Join FlightAware (Why Join?)
  • Login
  • US Flag 
01:10PM EDT


 

Airport Tracker/Info


-or-


 

Live Flight TrackerFlight Track Log ✈ N102WY ✈ 02-Nov-2013 ✈ KCYS - KCPR

Flight Track Log - Related Links

Times and Time Zones

All times are in EDT time to prevent confusion due to time zone crossing. See the N102WY flight status page for this flight to view local times or setup timezone preferences in your user account.

Time Position Orientation Groundspeed Altitude Reporting Facility
EDT Latitude Longitude Course Direction KTS MPH feet Rate Location/Type
01:07PM 41.1697 -104.8444 323° Northwest 206 237 8,300  Level Denver Center
01:08PM 41.2225 -104.8781 334° Northwest 221 254 11,800 2,880 Climbing Denver Center
01:09PM 41.2908 -104.9339 328° Northwest 250 288 14,300 2,460 Climbing Denver Center
01:10PM 41.3572 -104.9939 326° Northwest 288 331 16,900 2,520 Climbing Denver Center
01:11PM 41.4319 -105.0664 324° Northwest 297 342 19,600 2,520 Climbing Denver Center
01:13PM 41.6240 -105.2415 323° Northwest  Level Estimated
01:13PM 41.4997 -105.1278 326° Northwest 303 349 22,200  Level Denver Center
01:14PM 41.5789 -105.1992 326° Northwest 306 352 24,000 840 Climbing Denver Center
01:15PM 41.6506 -105.2669 325° Northwest 323 372 24,000  Level Denver Center
01:16PM 41.7331 -105.3433 325° Northwest 324 373 24,000  Level Denver Center
01:17PM 41.8042 -105.4111 325° Northwest 327 376 24,000  Level Denver Center
01:18PM 41.8881 -105.4800 329° Northwest 319 367 24,000  Level Denver Center
01:19PM 41.9606 -105.5436 327° Northwest 323 372 24,000  Level Denver Center
01:20PM 42.0428 -105.6144 327° Northwest 315 362 24,000  Level Denver Center
01:21PM 42.1164 -105.6783 327° Northwest 323 372 24,000  Level Denver Center
01:22PM 42.2011 -105.7511 328° Northwest 323 372 24,000  Level Denver Center
01:23PM 42.2728 -105.8147 327° Northwest 323 372 24,000  Level Denver Center
01:24PM 42.3442 -105.8767 327° Northwest 320 368 24,000  Level Denver Center
01:25PM 42.4283 -105.9489 328° Northwest 320 368 24,000 -780 Level Denver Center
01:26PM 42.5008 -106.0133 327° Northwest 326 375 22,400 -2,040 Descending Denver Center
01:27PM 42.5817 -106.0847 327° Northwest 312 359 19,800 -2,340 Descending Denver Center
01:28PM 42.6486 -106.1431 327° Northwest 300 345 17,600 -2,460 Descending Denver Center
01:29PM 42.7214 -106.2086 327° Northwest 285 328 14,800 -2,640 Descending Denver Center
01:30PM 42.7819 -106.2619 327° Northwest 276 318 12,200 -2,700 Descending Denver Center
01:31PM 42.8547 -106.3258 327° Northwest 277 319 9,300 -2,280 Descending Denver Center
01:32PM 42.9186 -106.3572 340° North 264 304 7,500 -1,140 Descending Denver Center
01:33PM 42.9825 -106.3719 350° North 229 264 7,000 -420 Descending Denver Center
01:34PM 42.9525 -106.4000 214° Southwest 167 192 6,700 -480 Descending Denver Center
01:35PM 42.9244 -106.4331 221° Southwest 152 175 6,100 -600 Descending Denver Center
01:37PM 42.9080 -106.4644 234° Southwest  Level Estimated